Time;durP1;ratioP1;P1;durP2;ratioP2;P2;SDS_P1;SDS_P2;PMS_P1;PMS_P2;Temp;Humidity;BMP_temperature;BMP_pressure;BME280_temperature;BME280_humidity;BME280_pressure;Samples;Min_cycle;Max_cycle;Signal;HPM_P1;HPM_P2
2023/08/09 00:00:10;;;;;;;0.87;0.60;;;;;;;16.01;100.00;100494.22;5074211;28;20290;-60
2023/08/09 00:02:40;;;;;;;1.03;0.60;;;;;;;15.98;100.00;100494.31;5074675;28;20658;-59
2023/08/09 00:05:11;;;;;;;2.30;0.40;;;;;;;16.00;100.00;100507.44;5073925;28;20279;-58
2023/08/09 00:07:41;;;;;;;0.40;0.40;;;;;;;16.02;100.00;100505.59;5084973;28;20285;-57
2023/08/09 00:10:12;;;;;;;1.40;0.40;;;;;;;16.04;100.00;100503.78;5073957;28;20680;-59
2023/08/09 00:12:42;;;;;;;1.60;0.40;;;;;;;16.08;100.00;100506.25;5078497;28;20270;-56
2023/08/09 00:15:14;;;;;;;1.10;0.40;;;;;;;16.09;100.00;100513.25;5062236;28;20364;-57
2023/08/09 00:17:45;;;;;;;0.70;0.50;;;;;;;16.05;100.00;100510.75;5075539;28;20755;-57
2023/08/09 00:20:15;;;;;;;1.83;0.50;;;;;;;16.04;100.00;100509.91;5061873;28;20296;-55
2023/08/09 00:22:46;;;;;;;3.07;0.50;;;;;;;16.04;100.00;100499.38;5074343;28;20281;-57
2023/08/09 00:25:18;;;;;;;2.87;0.80;;;;;;;16.07;100.00;100493.97;5067304;28;20282;-57
2023/08/09 00:27:48;;;;;;;2.73;0.60;;;;;;;16.11;100.00;100498.22;5073499;28;20285;-58
2023/08/09 00:30:20;;;;;;;1.93;0.73;;;;;;;16.09;100.00;100502.69;5062841;28;20320;-57
2023/08/09 00:32:51;;;;;;;1.07;0.70;;;;;;;16.14;100.00;100502.53;5069711;28;20288;-58
2023/08/09 00:35:21;;;;;;;0.53;0.40;;;;;;;16.23;100.00;100510.13;5073217;28;20274;-57
2023/08/09 00:37:52;;;;;;;1.90;0.60;;;;;;;16.26;100.00;100515.28;5063906;28;20755;-57
2023/08/09 00:40:23;;;;;;;3.13;0.40;;;;;;;16.26;100.00;100510.00;5073619;28;20266;-56
2023/08/09 00:42:53;;;;;;;2.10;0.30;;;;;;;16.28;100.00;100507.34;5064280;28;20297;-56
2023/08/09 00:45:25;;;;;;;2.63;0.40;;;;;;;16.35;100.00;100499.13;5074617;28;20305;-57
2023/08/09 00:47:56;;;;;;;1.83;0.43;;;;;;;16.47;100.00;100510.13;5063074;28;20601;-56
2023/08/09 00:50:27;;;;;;;1.40;0.50;;;;;;;16.53;100.00;100507.28;5072586;28;20613;-56
2023/08/09 00:52:59;;;;;;;0.47;0.40;;;;;;;16.57;100.00;100507.13;5060364;28;20578;-58
2023/08/09 00:55:29;;;;;;;1.83;0.40;;;;;;;16.58;100.00;100510.63;5068246;28;20677;-56
2023/08/09 00:58:00;;;;;;;0.80;0.40;;;;;;;16.60;100.00;100508.78;5057125;28;20289;-57
2023/08/09 01:00:32;;;;;;;0.77;0.40;;;;;;;16.60;100.00;100504.38;5077969;28;20817;-57
2023/08/09 01:03:03;;;;;;;0.70;0.30;;;;;;;16.73;100.00;100496.84;5063905;28;20408;-57
2023/08/09 01:05:41;;;;;;;0.50;0.30;;;;;;;16.84;100.00;100490.31;5075227;28;20364;-55
2023/08/09 01:08:18;;;;;;;1.13;0.40;;;;;;;16.87;100.00;100484.91;5061762;28;20902;-59
2023/08/09 01:10:56;;;;;;;1.03;0.40;;;;;;;16.96;100.00;100487.22;5074835;28;20293;-58
2023/08/09 01:13:28;;;;;;;0.40;0.40;;;;;;;16.93;100.00;100484.69;5063704;28;20285;-56
2023/08/09 01:16:02;;;;;;;0.70;0.40;;;;;;;17.05;100.00;100478.94;5070837;28;20063;-58
2023/08/09 01:18:33;;;;;;;1.40;0.30;;;;;;;17.16;100.00;100466.16;5071508;28;20285;-57
2023/08/09 01:21:05;;;;;;;2.70;0.60;;;;;;;17.39;100.00;100469.63;5065562;28;20306;-58
2023/08/09 01:23:38;;;;;;;1.93;0.50;;;;;;;17.50;100.00;100480.63;5067287;28;20280;-59
2023/08/09 01:26:12;;;;;;;1.57;0.60;;;;;;;17.51;100.00;100486.78;5096527;28;20353;-59
2023/08/09 01:28:42;;;;;;;2.37;0.50;;;;;;;17.40;100.00;100495.16;5098095;28;20314;-59
2023/08/09 01:31:13;;;;;;;2.80;0.40;;;;;;;17.41;100.00;100491.56;5097031;28;20353;-59
2023/08/09 01:33:45;;;;;;;0.60;0.40;;;;;;;17.49;100.00;100489.47;5096961;28;20278;-59
2023/08/09 01:36:23;;;;;;;2.00;0.30;;;;;;;17.49;100.00;100492.09;5083514;28;20289;-57
2023/08/09 01:39:01;;;;;;;1.30;0.50;;;;;;;17.55;100.00;100493.66;5057298;28;20339;-56
2023/08/09 01:41:32;;;;;;;1.33;0.43;;;;;;;17.49;100.00;100484.19;5087122;28;20062;-57
2023/08/09 01:44:04;;;;;;;0.63;0.30;;;;;;;17.39;100.00;100477.56;5077406;28;20350;-59
2023/08/09 01:46:35;;;;;;;0.50;0.30;;;;;;;17.63;100.00;100497.69;5087644;28;20281;-60
2023/08/09 01:49:10;;;;;;;1.67;0.50;;;;;;;17.66;100.00;100481.69;5077361;28;20309;-58
2023/08/09 01:51:41;;;;;;;1.47;0.47;;;;;;;17.67;100.00;100478.13;5087879;28;20273;-60
2023/08/09 01:54:13;;;;;;;0.90;0.50;;;;;;;17.73;100.00;100507.88;5077575;28;20286;-57
2023/08/09 01:56:44;;;;;;;1.83;0.40;;;;;;;17.54;100.00;100508.63;5078734;28;20297;-56
2023/08/09 01:59:16;;;;;;;0.77;0.40;;;;;;;17.42;100.00;100493.28;5064589;28;20823;-59
2023/08/09 02:01:46;;;;;;;0.40;0.40;;;;;;;17.41;100.00;100507.41;5093416;28;20287;-58
2023/08/09 02:04:17;;;;;;;0.40;0.40;;;;;;;17.48;100.00;100508.88;5080171;28;20661;-56
2023/08/09 02:06:48;;;;;;;1.47;0.43;;;;;;;17.53;100.00;100517.47;5087654;28;20309;-58
2023/08/09 02:09:20;;;;;;;0.80;0.43;;;;;;;17.53;100.00;100517.47;5068853;28;20309;-57
2023/08/09 02:11:51;;;;;;;0.97;0.50;;;;;;;17.42;100.00;100530.25;5075407;28;20274;-57
2023/08/09 02:14:22;;;;;;;0.67;0.40;;;;;;;17.42;100.00;100522.34;5082469;28;20628;-59
2023/08/09 02:16:52;;;;;;;1.17;0.70;;;;;;;17.48;100.00;100514.16;5067261;28;20309;-57
2023/08/09 02:19:23;;;;;;;0.53;0.30;;;;;;;17.44;100.00;100512.56;5077679;28;20277;-57
2023/08/09 02:21:54;;;;;;;0.80;0.50;;;;;;;17.48;100.00;100514.16;5066287;28;20616;-55
2023/08/09 02:24:26;;;;;;;7.03;0.60;;;;;;;17.39;100.00;100522.47;5077029;28;20608;-57
2023/08/09 02:26:57;;;;;;;2.50;0.70;;;;;;;17.41;100.00;100517.97;5064058;28;20289;-57
2023/08/09 02:29:28;;;;;;;2.27;0.67;;;;;;;17.56;100.00;100509.41;5079670;28;22888;-58
2023/08/09 02:31:59;;;;;;;2.73;0.70;;;;;;;17.64;100.00;100509.94;5075076;28;20308;-59
2023/08/09 02:34:30;;;;;;;0.53;0.40;;;;;;;17.65;100.00;100514.34;5078122;28;20656;-60
2023/08/09 02:37:01;;;;;;;2.47;0.60;;;;;;;17.35;100.00;100470.69;5091391;28;20282;-56
2023/08/09 02:39:33;;;;;;;1.40;0.57;;;;;;;17.55;100.00;100505.06;5094052;28;20379;-58
2023/08/09 02:42:04;;;;;;;1.53;0.40;;;;;;;17.68;100.00;100498.34;5074669;28;20627;-58
2023/08/09 02:44:35;;;;;;;0.60;0.43;;;;;;;17.79;100.00;100503.16;5088556;28;20377;-59
2023/08/09 02:47:05;;;;;;;1.87;0.60;;;;;;;17.78;100.00;100500.59;5063151;28;20328;-56
2023/08/09 02:49:36;;;;;;;0.40;0.40;;;;;;;17.64;100.00;100467.69;5074521;28;20365;-60
2023/08/09 02:52:07;;;;;;;0.87;0.50;;;;;;;17.94;100.00;100506.97;5063509;28;20278;-58
2023/08/09 02:54:39;;;;;;;2.50;0.40;;;;;;;17.99;100.00;100512.91;5074047;28;20344;-59
2023/08/09 02:57:13;;;;;;;0.70;0.40;;;;;;;17.93;100.00;100484.13;5063686;28;20285;-61
2023/08/09 02:59:43;;;;;;;0.50;0.40;;;;;;;17.98;100.00;100500.63;5084093;28;20302;-59
2023/08/09 03:02:14;;;;;;;0.97;0.53;;;;;;;18.09;100.00;100494.88;5094505;28;20297;-58
2023/08/09 03:04:45;;;;;;;1.90;0.50;;;;;;;18.08;100.00;100499.31;5076845;28;20295;-58
2023/08/09 03:07:17;;;;;;;0.67;0.50;;;;;;;17.86;100.00;100498.53;5054687;28;20306;-60
2023/08/09 03:09:49;;;;;;;1.13;0.43;;;;;;;17.78;100.00;100496.19;5084370;28;20288;-56
2023/08/09 03:12:19;;;;;;;0.40;0.30;;;;;;;17.84;100.00;100505.66;5075539;28;20273;-57
2023/08/09 03:14:50;;;;;;;2.10;0.50;;;;;;;18.01;100.00;100492.56;5086154;28;20868;-58
2023/08/09 03:17:20;;;;;;;2.93;0.70;;;;;;;18.29;100.00;100484.25;5074893;28;20285;-57
2023/08/09 03:19:51;;;;;;;0.80;0.77;;;;;;;18.38;100.00;100495.38;5082162;28;20270;-57
2023/08/09 03:22:23;;;;;;;1.33;0.50;;;;;;;18.51;100.00;100502.69;5079144;28;20297;-56
2023/08/09 03:24:55;;;;;;;0.57;0.40;;;;;;;18.68;100.00;100498.41;5061588;28;20336;-58
2023/08/09 03:27:25;;;;;;;1.50;0.53;;;;;;;18.64;100.00;100486.25;5074824;28;20270;-59
2023/08/09 03:29:56;;;;;;;1.77;0.50;;;;;;;18.83;100.00;100508.31;5066202;28;20273;-55
2023/08/09 03:32:26;;;;;;;0.70;0.53;;;;;;;18.86;100.00;100502.03;5072981;28;20285;-60
2023/08/09 03:34:57;;;;;;;0.80;0.40;;;;;;;18.94;100.00;100500.72;5067730;28;20393;-58
2023/08/09 03:37:27;;;;;;;4.97;0.77;;;;;;;19.07;99.29;100500.13;5072663;28;20294;-56
2023/08/09 03:39:59;;;;;;;2.07;0.57;;;;;;;18.99;99.67;100502.28;5062431;28;20673;-56
2023/08/09 03:42:30;;;;;;;1.27;0.50;;;;;;;18.93;100.00;100498.16;5078841;28;20287;-57
2023/08/09 03:45:00;;;;;;;2.80;0.40;;;;;;;19.11;100.00;100501.72;5075396;28;20376;-57
2023/08/09 03:47:31;;;;;;;2.03;0.60;;;;;;;19.30;100.00;100491.94;5085088;28;20281;-58
2023/08/09 03:50:01;;;;;;;2.10;0.47;;;;;;;19.26;99.81;100484.22;5074669;28;20728;-59
2023/08/09 03:52:34;;;;;;;1.00;0.70;;;;;;;19.35;99.50;100484.63;5079491;28;20293;-59
2023/08/09 03:55:07;;;;;;;0.83;0.60;;;;;;;19.28;99.27;100450.56;5074399;28;20324;-58
2023/08/09 03:57:38;;;;;;;2.30;0.50;;;;;;;19.59;98.99;100502.88;5078293;28;20281;-56
2023/08/09 04:00:10;;;;;;;1.43;0.60;;;;;;;19.35;97.55;100513.78;5074303;28;20377;-58
2023/08/09 04:02:40;;;;;;;1.67;0.40;;;;;;;19.21;99.55;100513.56;5081817;28;20745;-58
2023/08/09 04:05:11;;;;;;;2.00;0.50;;;;;;;19.06;99.11;100503.72;5059797;28;20276;-57
2023/08/09 04:07:42;;;;;;;1.03;0.47;;;;;;;19.03;98.24;100503.88;5084163;28;20285;-60
2023/08/09 04:10:15;;;;;;;1.53;0.47;;;;;;;19.06;100.00;100504.56;5074424;28;20285;-57
2023/08/09 04:12:45;;;;;;;2.63;0.60;;;;;;;19.03;99.91;100514.47;5084525;28;20293;-57
2023/08/09 04:15:16;;;;;;;1.17;0.30;;;;;;;19.02;98.50;100513.63;5073809;28;20285;-60
2023/08/09 04:17:48;;;;;;;2.07;0.33;;;;;;;19.09;98.79;100519.47;5084344;28;20269;-60
2023/08/09 04:20:19;;;;;;;2.63;0.37;;;;;;;19.01;96.87;100521.63;5073300;28;20727;-56
2023/08/09 04:22:50;;;;;;;2.13;0.40;;;;;;;19.03;98.39;100525.06;5084934;28;20297;-60
2023/08/09 04:25:23;;;;;;;2.67;0.50;;;;;;;19.14;100.00;100520.09;5073767;28;20783;-57
2023/08/09 04:27:53;;;;;;;1.73;0.50;;;;;;;19.16;97.33;100531.47;5073571;28;20307;-59
2023/08/09 04:30:24;;;;;;;2.30;0.50;;;;;;;18.99;97.35;100518.19;5084182;28;20300;-58
2023/08/09 04:32:55;;;;;;;1.53;0.50;;;;;;;18.98;97.42;100519.13;5068502;28;20373;-58
2023/08/09 04:35:25;;;;;;;0.83;0.40;;;;;;;19.00;98.82;100514.63;5072366;28;20282;-58
2023/08/09 04:37:56;;;;;;;1.70;0.30;;;;;;;19.09;98.63;100511.53;5069489;28;20718;-59
2023/08/09 04:40:29;;;;;;;1.07;0.40;;;;;;;19.06;97.41;100511.66;5083791;28;20293;-59
2023/08/09 04:42:59;;;;;;;1.30;0.40;;;;;;;19.08;97.07;100521.25;5055426;28;20294;-57
2023/08/09 04:45:30;;;;;;;0.80;0.47;;;;;;;19.03;97.14;100514.47;5069540;28;20416;-60
2023/08/09 04:48:01;;;;;;;0.40;0.40;;;;;;;19.10;97.03;100515.91;5073519;28;20266;-57
2023/08/09 04:50:31;;;;;;;1.00;0.30;;;;;;;19.09;95.20;100514.16;5084206;28;20293;-58
2023/08/09 04:53:03;;;;;;;1.90;0.40;;;;;;;19.14;96.79;100517.44;5073953;28;20308;-58
2023/08/09 04:55:35;;;;;;;0.73;0.30;;;;;;;19.12;95.88;100509.59;5084722;28;20309;-58
2023/08/09 04:58:05;;;;;;;0.50;0.30;;;;;;;18.97;95.58;100505.03;5053395;28;20837;-63
2023/08/09 05:00:36;;;;;;;2.20;0.50;;;;;;;19.07;97.78;100521.31;5070427;28;20286;-58
2023/08/09 05:03:07;;;;;;;0.40;0.30;;;;;;;19.04;96.38;100516.19;5077839;28;20289;-59
2023/08/09 05:05:38;;;;;;;0.63;0.40;;;;;;;18.99;97.07;100518.19;5088486;28;20376;-56
2023/08/09 05:08:08;;;;;;;2.17;0.30;;;;;;;18.93;96.60;100530.78;5078298;28;20308;-56
2023/08/09 05:10:40;;;;;;;0.77;0.40;;;;;;;18.96;96.53;100535.06;5088725;28;20715;-57
2023/08/09 05:13:11;;;;;;;0.87;0.47;;;;;;;18.87;96.23;100523.13;5077794;28;20347;-57
2023/08/09 05:15:41;;;;;;;1.40;0.43;;;;;;;18.78;96.75;100520.91;5088370;28;20384;-57
2023/08/09 05:18:12;;;;;;;6.20;0.43;;;;;;;18.80;97.22;100513.75;5076892;28;20277;-58
2023/08/09 05:20:42;;;;;;;2.80;0.43;;;;;;;18.93;97.31;100514.91;5078991;28;20369;-61
2023/08/09 05:23:13;;;;;;;2.23;0.53;;;;;;;18.86;97.07;100508.16;5058665;28;20376;-56
2023/08/09 05:25:45;;;;;;;0.90;0.40;;;;;;;19.04;97.40;100518.81;5079294;28;20278;-57
2023/08/09 05:28:18;;;;;;;1.07;0.40;;;;;;;19.06;95.49;100506.38;5066687;28;20361;-60
2023/08/09 05:30:49;;;;;;;2.13;0.43;;;;;;;19.06;96.09;100511.66;5074966;28;20371;-58
2023/08/09 05:33:20;;;;;;;0.63;0.43;;;;;;;18.98;96.91;100508.53;5066005;28;20278;-57
2023/08/09 05:35:51;;;;;;;0.63;0.40;;;;;;;18.95;97.37;100513.03;5073873;28;20598;-58
2023/08/09 05:38:21;;;;;;;1.70;0.53;;;;;;;19.02;97.66;100510.97;5084235;28;20275;-58
2023/08/09 05:40:53;;;;;;;2.93;0.80;;;;;;;19.08;96.49;100512.47;5079295;28;20291;-57
2023/08/09 05:43:24;;;;;;;1.23;0.50;;;;;;;19.14;95.59;100518.31;5087212;28;20289;-58
2023/08/09 05:45:54;;;;;;;1.60;0.60;;;;;;;19.11;94.70;100533.50;5068367;28;20276;-57
2023/08/09 05:48:24;;;;;;;2.30;0.70;;;;;;;19.23;97.44;100538.22;5067687;28;20278;-57
2023/08/09 05:50:55;;;;;;;3.37;1.00;;;;;;;19.23;96.60;100538.22;5066891;28;20815;-58
2023/08/09 05:53:25;;;;;;;1.63;0.67;;;;;;;19.05;97.92;100544.41;5077031;28;20270;-58
2023/08/09 05:55:57;;;;;;;2.83;0.70;;;;;;;18.97;98.97;100547.41;5069087;28;20388;-56
2023/08/09 05:58:28;;;;;;;3.33;0.90;;;;;;;18.87;99.41;100546.09;5081499;28;20715;-58
2023/08/09 06:00:58;;;;;;;1.53;0.80;;;;;;;18.64;99.94;100540.03;5082056;28;20314;-58
2023/08/09 06:03:29;;;;;;;1.77;0.60;;;;;;;18.52;100.00;100544.09;5076953;28;20286;-59
2023/08/09 06:06:00;;;;;;;2.83;0.50;;;;;;;18.37;100.00;100536.84;5069119;28;20278;-59
2023/08/09 06:08:31;;;;;;;4.77;0.80;;;;;;;18.42;100.00;100550.75;5111686;28;20315;-59
2023/08/09 06:11:03;;;;;;;2.00;0.70;;;;;;;18.31;100.00;100537.13;5085889;28;20341;-59
2023/08/09 06:13:34;;;;;;;1.80;0.60;;;;;;;18.27;100.00;100554.91;5073985;28;20708;-59
2023/08/09 06:16:04;;;;;;;1.63;0.73;;;;;;;18.27;100.00;100552.28;5061435;28;20297;-57
2023/08/09 06:18:35;;;;;;;1.70;0.93;;;;;;;18.31;100.00;100552.97;5081572;28;20274;-56
2023/08/09 06:21:05;;;;;;;3.23;0.80;;;;;;;18.34;100.00;100560.78;5083181;28;20308;-59
2023/08/09 06:23:36;;;;;;;1.57;0.60;;;;;;;18.40;100.00;100563.19;5093910;28;20360;-58
2023/08/09 06:26:08;;;;;;;2.40;0.57;;;;;;;18.37;100.00;100568.59;5114654;28;20273;-57
2023/08/09 06:28:40;;;;;;;3.20;0.80;;;;;;;18.36;100.00;100577.44;5099804;28;20273;-59
2023/08/09 06:31:10;;;;;;;2.10;0.70;;;;;;;18.27;100.00;100573.44;5082357;28;20340;-61
2023/08/09 06:33:42;;;;;;;2.70;0.70;;;;;;;18.25;100.00;100569.13;5086588;28;20308;-60
2023/08/09 06:36:14;;;;;;;2.83;0.83;;;;;;;17.89;100.00;100519.53;5074881;28;20269;-59
2023/08/09 06:38:44;;;;;;;3.67;0.80;;;;;;;18.02;100.00;100584.19;5103756;28;20339;-60
2023/08/09 06:41:17;;;;;;;2.73;0.80;;;;;;;17.85;100.00;100591.97;5079977;28;20273;-57
2023/08/09 06:43:47;;;;;;;2.17;0.80;;;;;;;17.75;100.00;100602.03;5082699;28;20342;-59
2023/08/09 06:46:18;;;;;;;1.03;0.50;;;;;;;17.59;100.00;100607.06;5075954;28;20334;-60
2023/08/09 06:48:48;;;;;;;1.90;0.73;;;;;;;17.63;100.00;100602.53;5086633;28;20292;-59
2023/08/09 06:51:19;;;;;;;1.80;0.83;;;;;;;17.66;100.00;100603.25;5073612;28;20361;-58
2023/08/09 06:53:49;;;;;;;3.20;0.73;;;;;;;17.68;100.00;100601.41;5078664;28;20835;-58
2023/08/09 06:56:22;;;;;;;0.97;0.50;;;;;;;17.59;100.00;100596.47;5065132;28;20382;-60
2023/08/09 06:58:52;;;;;;;0.50;0.50;;;;;;;17.52;100.00;100595.00;5073383;28;20360;-58
2023/08/09 07:01:22;;;;;;;0.40;0.40;;;;;;;17.59;100.00;100585.91;5078474;28;20361;-57
2023/08/09 07:03:53;;;;;;;1.90;0.50;;;;;;;17.58;100.00;100578.06;5106087;28;20297;-58
2023/08/09 07:06:24;;;;;;;7.97;0.53;;;;;;;17.61;100.00;100578.78;5102844;28;20364;-58
2023/08/09 07:08:54;;;;;;;0.63;0.53;;;;;;;17.69;100.00;100581.97;5083606;28;20269;-58
2023/08/09 07:11:27;;;;;;;1.07;0.50;;;;;;;17.72;100.00;100580.13;5094005;28;20273;-59
2023/08/09 07:13:57;;;;;;;0.40;0.40;;;;;;;17.75;100.00;100593.25;5083704;28;20787;-59
2023/08/09 07:16:28;;;;;;;1.63;0.60;;;;;;;17.49;100.00;100549.38;5094505;28;20273;-58
2023/08/09 07:18:58;;;;;;;0.73;0.40;;;;;;;17.76;100.00;100592.31;5081976;28;20265;-58
2023/08/09 07:21:29;;;;;;;0.63;0.43;;;;;;;17.67;100.00;100594.41;5115663;28;20277;-60
2023/08/09 07:23:59;;;;;;;2.77;0.50;;;;;;;17.74;100.00;100604.72;5099003;28;20332;-57
2023/08/09 07:26:31;;;;;;;1.40;0.50;;;;;;;17.76;100.00;100592.31;5065519;28;20297;-59
2023/08/09 07:29:03;;;;;;;1.63;0.60;;;;;;;17.78;100.00;100590.47;5055981;28;20298;-59
2023/08/09 07:31:33;;;;;;;0.70;0.53;;;;;;;17.71;100.00;100594.28;5065493;28;20666;-57
2023/08/09 07:34:04;;;;;;;2.00;0.70;;;;;;;17.62;100.00;100584.94;5055379;28;20310;-55
2023/08/09 07:36:34;;;;;;;1.77;0.60;;;;;;;17.54;100.00;100582.59;5066036;28;20297;-59
2023/08/09 07:39:05;;;;;;;0.60;0.50;;;;;;;17.46;100.00;100584.69;5055334;28;20363;-56
2023/08/09 07:41:37;;;;;;;2.40;0.60;;;;;;;17.41;100.00;100591.94;5065600;28;20365;-56
2023/08/09 07:44:08;;;;;;;0.60;0.57;;;;;;;17.34;100.00;100604.53;5055368;28;20308;-57
2023/08/09 07:46:38;;;;;;;0.80;0.50;;;;;;;17.25;100.00;100586.41;5065270;28;20365;-57
2023/08/09 07:49:09;;;;;;;1.83;0.60;;;;;;;17.18;100.00;100580.50;5054629;28;20309;-58
2023/08/09 07:51:40;;;;;;;0.80;0.50;;;;;;;17.10;100.00;100576.41;5073651;28;20286;-61
2023/08/09 07:54:10;;;;;;;1.13;0.60;;;;;;;17.03;100.00;100573.16;5067603;28;20702;-57
2023/08/09 07:56:42;;;;;;;1.13;0.70;;;;;;;17.08;100.00;100584.41;5080262;28;20750;-57
2023/08/09 07:59:13;;;;;;;2.27;0.70;;;;;;;17.19;100.00;100582.22;5074045;28;20277;-57
2023/08/09 08:01:43;;;;;;;0.83;0.50;;;;;;;17.23;100.00;100573.25;5085371;28;20356;-58
2023/08/09 08:04:15;;;;;;;1.53;0.70;;;;;;;17.23;100.00;100575.03;5074115;28;20294;-55
2023/08/09 08:06:48;;;;;;;1.80;0.60;;;;;;;17.15;100.00;100577.97;5084822;28;20270;-61
2023/08/09 08:09:18;;;;;;;2.13;0.80;;;;;;;17.12;100.00;100596.56;5074018;28;20270;-58
2023/08/09 08:11:50;;;;;;;2.20;0.70;;;;;;;17.13;100.00;100592.16;5084917;28;20313;-60
2023/08/09 08:14:22;;;;;;;0.70;0.53;;;;;;;17.09;100.00;100596.69;5073694;28;20292;-58
2023/08/09 08:16:52;;;;;;;0.60;0.60;;;;;;;17.10;100.00;100593.16;5067919;28;20296;-56
2023/08/09 08:19:23;;;;;;;1.90;0.80;;;;;;;17.11;100.00;100600.13;5064233;28;20289;-57
2023/08/09 08:21:53;;;;;;;0.90;0.70;;;;;;;17.14;100.00;100599.16;5067252;28;20281;-57
2023/08/09 08:24:24;;;;;;;1.13;0.60;;;;;;;17.17;100.00;100597.28;5084152;28;20343;-58
2023/08/09 08:26:56;;;;;;;3.00;0.80;;;;;;;17.18;100.00;100601.63;5073947;28;20269;-58
2023/08/09 08:29:26;;;;;;;5.37;0.70;;;;;;;17.18;100.00;100596.34;5084371;28;20285;-57
2023/08/09 08:31:58;;;;;;;1.50;0.70;;;;;;;17.11;100.00;100600.13;5074242;28;20322;-59
2023/08/09 08:34:31;;;;;;;1.50;0.70;;;;;;;17.04;100.00;100609.19;5083758;28;20285;-60
2023/08/09 08:37:03;;;;;;;0.70;0.60;;;;;;;17.01;100.00;100604.03;5073196;28;20320;-58
2023/08/09 08:39:36;;;;;;;1.00;0.73;;;;;;;16.94;100.00;100597.25;5084263;28;20294;-55
2023/08/09 08:42:08;;;;;;;2.30;0.50;;;;;;;16.96;100.00;100629.75;5073946;28;20799;-56
2023/08/09 08:44:39;;;;;;;1.60;0.87;;;;;;;16.88;100.00;100639.75;5084232;28;20308;-58
2023/08/09 08:47:10;;;;;;;2.00;1.00;;;;;;;16.79;100.00;100652.31;5073406;28;21040;-58
2023/08/09 08:49:45;;;;;;;1.50;0.90;;;;;;;16.60;100.00;100609.03;5084740;28;20354;-60
2023/08/09 08:52:17;;;;;;;2.53;1.07;;;;;;;16.66;100.00;100635.19;5073705;28;20373;-59
2023/08/09 08:54:48;;;;;;;1.53;0.90;;;;;;;16.59;100.00;100660.91;5084438;28;20280;-56
2023/08/09 08:57:21;;;;;;;2.40;1.30;;;;;;;16.60;100.00;100665.28;5073398;28;20288;-57
2023/08/09 08:59:52;;;;;;;2.83;1.40;;;;;;;16.58;100.00;100674.19;5073198;28;20285;-57
2023/08/09 09:02:26;;;;;;;4.57;1.33;;;;;;;16.54;100.00;100667.28;5083651;28;20270;-58
2023/08/09 09:04:59;;;;;;;3.03;1.50;;;;;;;16.48;100.00;100667.50;5073624;28;20293;-56
2023/08/09 09:07:30;;;;;;;2.67;1.30;;;;;;;16.44;100.00;100681.69;5063506;28;20314;-57
2023/08/09 09:10:03;;;;;;;1.87;1.40;;;;;;;16.38;100.00;100683.63;5063010;28;20401;-57
2023/08/09 09:12:40;;;;;;;3.87;1.33;;;;;;;16.28;100.00;100679.59;5083872;28;20289;-58
2023/08/09 09:15:11;;;;;;;4.37;1.30;;;;;;;16.24;100.00;100667.41;5073287;28;20280;-60
2023/08/09 09:17:43;;;;;;;2.37;1.30;;;;;;;16.17;100.00;100665.88;5069787;28;20277;-59
2023/08/09 09:20:18;;;;;;;10.00;1.63;;;;;;;16.17;100.00;100690.50;5053839;28;20327;-58
2023/08/09 09:22:49;;;;;;;5.40;1.40;;;;;;;16.11;100.00;100681.91;5063929;28;20717;-58
2023/08/09 09:25:20;;;;;;;4.47;1.63;;;;;;;16.06;100.00;100682.06;5053338;28;20620;-57
2023/08/09 09:27:56;;;;;;;2.13;1.50;;;;;;;16.10;100.00;100688.06;5057796;28;20282;-58
2023/08/09 09:30:31;;;;;;;2.20;1.73;;;;;;;15.99;100.00;100684.94;5063894;28;20305;-58
2023/08/09 09:33:05;;;;;;;4.20;1.83;;;;;;;16.03;100.00;100697.13;5053995;28;20906;-57
2023/08/09 09:35:36;;;;;;;6.50;1.80;;;;;;;15.99;100.00;100695.47;5063911;28;20324;-58
2023/08/09 09:38:09;;;;;;;3.80;1.70;;;;;;;15.85;100.00;100704.69;5053858;28;20402;-60
2023/08/09 09:40:44;;;;;;;5.63;2.27;;;;;;;15.88;100.00;100688.78;5064083;28;20666;-59
2023/08/09 09:43:17;;;;;;;2.33;1.57;;;;;;;15.85;100.00;100678.34;5053457;28;20346;-58
2023/08/09 09:45:48;;;;;;;2.63;1.73;;;;;;;15.79;100.00;100667.97;5065194;28;20371;-58
2023/08/09 09:48:19;;;;;;;2.93;1.30;;;;;;;15.72;100.00;100650.63;5056675;28;20698;-56
2023/08/09 09:50:50;;;;;;;2.67;1.40;;;;;;;15.74;100.00;100662.84;5067406;28;20290;-57
2023/08/09 09:53:22;;;;;;;2.17;1.57;;;;;;;15.59;100.00;100654.53;5056523;28;20743;-58
2023/08/09 09:55:52;;;;;;;2.53;1.73;;;;;;;15.72;100.00;100682.25;5058804;28;20329;-60
2023/08/09 09:58:25;;;;;;;4.30;1.97;;;;;;;15.72;100.00;100684.88;5087126;28;20301;-58
2023/08/09 10:00:57;;;;;;;4.13;1.67;;;;;;;15.73;100.00;100699.81;5076249;28;20334;-58
2023/08/09 10:03:31;;;;;;;4.70;1.93;;;;;;;15.63;100.00;100693.06;5086582;28;20669;-58
2023/08/09 10:06:26;;;;;;;3.67;1.73;;;;;;;15.73;100.00;100710.34;5076241;28;20356;-58
2023/08/09 10:08:59;;;;;;;6.43;2.10;;;;;;;15.70;100.00;100698.13;5076809;28;20350;-58
2023/08/09 10:11:30;;;;;;;5.13;1.87;;;;;;;15.72;100.00;100708.59;5086965;28;20372;-57
2023/08/09 10:14:05;;;;;;;3.20;2.07;;;;;;;15.72;100.00;100720.03;5076930;28;20662;-59
2023/08/09 10:16:38;;;;;;;6.23;2.00;;;;;;;15.72;100.00;100724.41;5087195;28;20379;-59
2023/08/09 10:19:14;;;;;;;4.50;2.00;;;;;;;15.73;100.00;100726.16;5076342;28;21284;-60
2023/08/09 10:21:45;;;;;;;3.97;2.20;;;;;;;15.73;100.00;100731.41;5086357;28;20274;-57
2023/08/09 10:24:18;;;;;;;8.80;2.00;;;;;;;15.73;100.00;100731.41;5075833;28;20261;-61
2023/08/09 10:26:52;;;;;;;5.20;1.80;;;;;;;15.70;100.00;100742.03;5086631;28;20642;-58
2023/08/09 10:29:26;;;;;;;4.90;2.00;;;;;;;15.72;100.00;100753.38;5075859;28;20304;-56
2023/08/09 10:32:00;;;;;;;3.97;1.73;;;;;;;15.75;100.00;100745.41;5076024;28;20313;-59
2023/08/09 10:34:40;;;;;;;5.53;2.10;;;;;;;15.49;100.00;100704.84;5076042;28;20331;-58
2023/08/09 10:37:24;;;;;;;5.83;2.23;;;;;;;15.64;100.00;100729.00;5056460;28;20289;-60
2023/08/09 10:40:15;;;;;;;5.57;1.90;;;;;;;15.69;100.00;100751.69;5058432;28;20274;-58
2023/08/09 10:42:52;;;;;;;2.60;1.80;;;;;;;15.70;100.00;100757.81;5086420;28;20382;-60
2023/08/09 10:45:26;;;;;;;3.87;2.00;;;;;;;15.73;100.00;100757.75;5076262;28;20274;-60
2023/08/09 10:48:19;;;;;;;5.63;2.10;;;;;;;15.67;100.00;100731.56;5075681;28;20289;-59
2023/08/09 10:51:03;;;;;;;7.80;2.40;;;;;;;15.75;100.00;100745.41;5085763;28;20361;-57
2023/08/09 10:53:53;;;;;;;3.80;2.10;;;;;;;15.66;100.00;100740.38;5086085;28;20736;-58
2023/08/09 10:56:36;;;;;;;8.40;2.67;;;;;;;15.78;100.00;100770.81;5075475;28;20285;-59
2023/08/09 10:59:09;;;;;;;4.17;2.33;;;;;;;15.75;100.00;100787.56;5075023;28;20300;-60
2023/08/09 11:01:44;;;;;;;4.80;2.47;;;;;;;15.70;100.00;100789.44;5086161;28;20285;-61
2023/08/09 11:04:18;;;;;;;5.07;2.70;;;;;;;15.72;100.00;100771.81;5074865;28;20646;-59
2023/08/09 11:06:51;;;;;;;5.87;2.30;;;;;;;15.67;100.00;100776.34;5085859;28;20286;-58
2023/08/09 11:09:26;;;;;;;6.07;2.50;;;;;;;15.63;100.00;100769.44;5071957;28;20297;-59
2023/08/09 11:11:58;;;;;;;5.93;2.50;;;;;;;15.66;100.00;100761.44;5055323;28;20286;-56
2023/08/09 11:14:33;;;;;;;7.40;2.63;;;;;;;15.53;100.00;100751.28;5065508;28;20282;-58
2023/08/09 11:17:13;;;;;;;8.73;2.70;;;;;;;15.46;100.00;100741.81;5063474;28;20281;-58
2023/08/09 11:19:45;;;;;;;6.67;2.93;;;;;;;15.49;100.00;100749.63;5085871;28;20290;-58
2023/08/09 11:22:17;;;;;;;4.67;2.33;;;;;;;15.54;100.00;100762.66;5074831;28;20365;-61
2023/08/09 11:24:50;;;;;;;9.57;3.07;;;;;;;15.55;100.00;100764.41;5085336;28;20388;-58
2023/08/09 11:27:22;;;;;;;5.43;2.03;;;;;;;15.36;100.00;100729.81;5074283;28;20304;-58
2023/08/09 11:29:54;;;;;;;6.23;2.57;;;;;;;15.54;100.00;100752.97;5074892;28;20935;-58
2023/08/09 11:32:31;;;;;;;6.93;2.53;;;;;;;15.31;100.00;100702.75;5085524;28;20316;-58
2023/08/09 11:35:03;;;;;;;4.47;2.60;;;;;;;15.51;100.00;100747.81;5075341;28;20280;-58
2023/08/09 11:37:36;;;;;;;6.33;2.60;;;;;;;15.49;100.00;100744.34;5085387;28;20299;-58
2023/08/09 11:40:10;;;;;;;6.53;2.77;;;;;;;15.46;100.00;100743.59;5074209;28;20273;-59